Time;durP1;ratioP1;P1;durP2;ratioP2;P2;SDS_P1;SDS_P2;PMS_P1;PMS_P2;Temp;Humidity;BMP_temperature;BMP_pressure;BME280_temperature;BME280_humidity;BME280_pressure;Samples;Min_cycle;Max_cycle;Signal;HPM_P1;HPM_P2
2021/08/13 00:01:08;;;;;;;12.30;8.45;;;23.00;80.00;;;;;;5082558;28;20082;-59
2021/08/13 00:03:34;;;;;;;13.65;8.27;;;22.50;82.30;;;;;;5083481;28;20051;-60
2021/08/13 00:06:00;;;;;;;10.15;8.52;;;22.30;82.80;;;;;;5082790;28;20021;-59
2021/08/13 00:08:25;;;;;;;9.50;8.50;;;22.00;84.00;;;;;;5064885;28;20035;-59
2021/08/13 00:10:51;;;;;;;13.02;9.65;;;21.90;84.80;;;;;;5083952;28;20028;-59
2021/08/13 00:13:17;;;;;;;11.48;9.68;;;21.80;85.40;;;;;;5082258;28;20515;-59
2021/08/13 00:15:42;;;;;;;14.65;10.18;;;21.70;86.10;;;;;;5082592;28;20054;-58
2021/08/13 00:18:08;;;;;;;12.40;10.95;;;21.60;86.40;;;;;;5083815;28;20067;-59
2021/08/13 00:20:34;;;;;;;12.50;9.82;;;21.60;86.60;;;;;;5081742;28;20065;-57
2021/08/13 00:23:01;;;;;;;15.70;10.18;;;21.70;86.40;;;;;;5082330;28;20032;-58
2021/08/13 00:25:26;;;;;;;15.20;10.30;;;21.80;86.00;;;;;;5081868;28;20107;-59
2021/08/13 00:27:52;;;;;;;14.00;10.60;;;21.90;85.20;;;;;;5083161;28;20222;-59
2021/08/13 00:30:18;;;;;;;16.67;10.55;;;21.80;85.30;;;;;;5081008;28;20028;-59
2021/08/13 00:32:43;;;;;;;13.75;10.32;;;21.70;86.30;;;;;;5083537;28;20033;-59
2021/08/13 00:35:09;;;;;;;15.35;10.07;;;21.50;86.90;;;;;;5081824;28;20024;-59
2021/08/13 00:37:37;;;;;;;11.10;8.82;;;21.50;87.40;;;;;;5081227;28;20491;-59
2021/08/13 00:40:03;;;;;;;11.45;8.82;;;21.50;87.00;;;;;;5082508;28;20032;-55
2021/08/13 00:42:29;;;;;;;13.10;9.35;;;21.40;87.50;;;;;;5083554;28;20032;-59
2021/08/13 00:44:54;;;;;;;10.70;9.60;;;21.40;87.60;;;;;;5081717;28;20464;-59
2021/08/13 00:47:20;;;;;;;12.35;9.05;;;21.40;87.90;;;;;;5081658;28;20031;-59
2021/08/13 00:49:45;;;;;;;14.93;10.18;;;21.30;88.20;;;;;;5083176;28;20449;-59
2021/08/13 00:52:12;;;;;;;11.40;9.43;;;21.40;88.10;;;;;;5083088;28;20094;-60
2021/08/13 00:54:37;;;;;;;13.15;9.40;;;21.50;87.90;;;;;;5081896;28;20033;-60
2021/08/13 00:57:04;;;;;;;14.05;9.82;;;21.60;87.60;;;;;;5082330;28;20515;-59
2021/08/13 00:59:29;;;;;;;11.75;9.15;;;21.70;87.60;;;;;;5083555;28;20036;-61
2021/08/13 01:01:55;;;;;;;15.40;9.68;;;21.80;88.00;;;;;;5084242;28;20044;-59
2021/08/13 01:04:21;;;;;;;12.85;9.38;;;21.70;88.80;;;;;;5080568;28;20068;-59
2021/08/13 01:06:47;;;;;;;12.95;9.13;;;21.60;89.20;;;;;;5088146;28;20118;-59
2021/08/13 01:09:12;;;;;;;12.20;9.82;;;21.60;89.40;;;;;;5092599;28;20050;-58
2021/08/13 01:11:43;;;;;;;15.63;9.23;;;21.70;89.20;;;;;;5092883;28;20062;-58
2021/08/13 01:14:30;;;;;;;10.13;9.07;;;21.70;88.90;;;;;;5092640;28;20553;-58
2021/08/13 01:16:58;;;;;;;9.95;8.80;;;21.70;89.10;;;;;;5092108;28;20047;-59
2021/08/13 01:19:27;;;;;;;11.80;9.50;;;21.60;89.50;;;;;;5085383;28;20024;-58
2021/08/13 01:22:03;;;;;;;11.43;9.63;;;21.70;89.60;;;;;;5072254;28;20089;-57
2021/08/13 01:24:32;;;;;;;11.38;9.23;;;21.80;89.60;;;;;;5072143;28;20078;-58
2021/08/13 01:27:07;;;;;;;13.05;9.30;;;21.80;89.50;;;;;;5071638;28;20040;-57
2021/08/13 01:29:39;;;;;;;11.15;9.15;;;21.90;89.30;;;;;;5072315;28;20036;-59
2021/08/13 01:32:14;;;;;;;10.88;8.85;;;21.90;89.00;;;;;;5072316;28;20040;-59
2021/08/13 01:34:48;;;;;;;11.35;9.18;;;22.00;88.80;;;;;;5054504;28;20041;-59
2021/08/13 01:37:19;;;;;;;14.60;8.85;;;22.10;88.30;;;;;;5071611;28;20037;-60
2021/08/13 01:39:47;;;;;;;10.00;8.77;;;22.10;88.00;;;;;;5071825;28;20075;-58
2021/08/13 01:42:13;;;;;;;11.45;9.13;;;22.10;88.20;;;;;;5071919;28;20070;-60
2021/08/13 01:44:41;;;;;;;11.15;9.23;;;22.10;88.30;;;;;;5071739;28;20530;-59
2021/08/13 01:47:06;;;;;;;15.30;9.52;;;22.00;88.60;;;;;;5071833;28;20131;-60
2021/08/13 01:49:33;;;;;;;14.23;9.48;;;21.90;88.80;;;;;;5081509;28;20035;-59
2021/08/13 01:52:00;;;;;;;10.73;8.43;;;21.80;89.70;;;;;;5092681;28;20044;-59
2021/08/13 01:54:26;;;;;;;10.75;9.13;;;21.80;89.40;;;;;;5092454;28;20051;-58
2021/08/13 01:56:53;;;;;;;9.77;8.68;;;21.70;89.40;;;;;;5091496;28;20480;-60
2021/08/13 01:59:19;;;;;;;18.73;14.57;;;21.50;89.80;;;;;;5094062;28;20047;-58
2021/08/13 02:01:46;;;;;;;13.57;9.75;;;21.40;90.20;;;;;;5077759;28;20118;-58
2021/08/13 02:04:18;;;;;;;12.85;9.32;;;21.30;90.40;;;;;;5095935;28;20062;-59
2021/08/13 02:06:45;;;;;;;12.15;9.38;;;21.20;90.70;;;;;;5095697;28;20107;-59
2021/08/13 02:09:11;;;;;;;10.60;8.93;;;21.00;90.80;;;;;;5096063;28;20028;-60
2021/08/13 02:11:37;;;;;;;12.10;9.60;;;20.80;91.20;;;;;;5077512;28;20032;-57
2021/08/13 02:14:03;;;;;;;10.77;9.30;;;20.60;91.40;;;;;;5095771;28;20121;-59
2021/08/13 02:16:31;;;;;;;10.20;9.05;;;20.50;91.60;;;;;;5094314;28;20058;-56
2021/08/13 02:19:11;;;;;;;13.52;9.90;;;20.60;91.70;;;;;;5094120;28;20495;-57
2021/08/13 02:21:41;;;;;;;12.10;9.45;;;20.60;91.80;;;;;;5095695;28;20483;-59
2021/08/13 02:24:06;;;;;;;12.73;10.52;;;20.60;91.90;;;;;;5087294;28;20411;-58
2021/08/13 02:26:32;;;;;;;13.15;9.95;;;20.60;91.70;;;;;;5059984;28;20024;-58
2021/08/13 02:29:01;;;;;;;16.10;10.23;;;20.70;91.40;;;;;;5077910;28;20422;-58
2021/08/13 02:31:27;;;;;;;15.52;9.85;;;20.70;91.20;;;;;;5093235;28;20035;-58
2021/08/13 02:33:52;;;;;;;15.05;10.38;;;20.60;91.10;;;;;;5091933;28;20040;-56
2021/08/13 02:36:29;;;;;;;16.27;10.30;;;20.60;91.00;;;;;;5092390;28;20056;-57
2021/08/13 02:38:59;;;;;;;14.18;10.18;;;20.60;91.10;;;;;;5095773;28;20065;-57
2021/08/13 02:41:30;;;;;;;14.80;9.90;;;20.60;91.20;;;;;;5095458;28;20036;-58
2021/08/13 02:44:02;;;;;;;12.65;9.77;;;20.50;91.30;;;;;;5095048;28;20024;-58
2021/08/13 02:46:33;;;;;;;13.60;9.13;;;20.50;91.40;;;;;;5094871;28;20028;-58
2021/08/13 02:49:00;;;;;;;15.70;10.57;;;20.50;91.60;;;;;;5073643;28;20028;-56
2021/08/13 02:51:30;;;;;;;13.15;9.07;;;20.50;91.50;;;;;;5074843;28;20025;-58
2021/08/13 02:53:56;;;;;;;12.90;9.80;;;20.50;91.60;;;;;;5075434;28;20135;-59
2021/08/13 02:56:26;;;;;;;11.48;8.77;;;20.50;91.60;;;;;;5074750;28;20127;-59
2021/08/13 02:59:16;;;;;;;12.02;9.30;;;20.60;91.50;;;;;;5074979;28;20036;-60
2021/08/13 03:01:44;;;;;;;10.70;8.98;;;20.70;91.60;;;;;;5074697;28;20028;-57
2021/08/13 03:04:11;;;;;;;11.75;9.40;;;20.70;91.60;;;;;;5074567;28;20025;-60
2021/08/13 03:06:39;;;;;;;17.30;9.40;;;20.70;91.50;;;;;;5074194;28;20032;-58
2021/08/13 03:09:06;;;;;;;11.48;9.23;;;20.70;91.50;;;;;;5074882;28;20044;-58
2021/08/13 03:11:33;;;;;;;14.02;9.07;;;20.70;91.70;;;;;;5073765;28;20080;-57
2021/08/13 03:14:01;;;;;;;12.93;9.65;;;20.70;92.00;;;;;;5057276;28;20063;-58
2021/08/13 03:16:26;;;;;;;11.93;8.35;;;20.70;92.10;;;;;;5075607;28;20033;-60
2021/08/13 03:18:54;;;;;;;12.32;9.65;;;20.70;92.50;;;;;;5058517;28;20043;-59
2021/08/13 03:21:20;;;;;;;10.13;8.95;;;20.50;92.60;;;;;;5094695;28;20125;-58
2021/08/13 03:23:46;;;;;;;12.25;9.30;;;20.50;92.60;;;;;;5094338;28;20071;-58
2021/08/13 03:26:13;;;;;;;14.98;10.15;;;20.40;92.50;;;;;;5094183;28;20494;-58
2021/08/13 03:28:39;;;;;;;13.23;9.50;;;20.30;92.40;;;;;;5076540;28;20044;-59
2021/08/13 03:31:05;;;;;;;10.88;9.63;;;20.20;92.50;;;;;;5094833;28;20028;-59
2021/08/13 03:33:30;;;;;;;13.52;10.48;;;20.10;92.60;;;;;;5094145;28;20427;-57
2021/08/13 03:35:58;;;;;;;14.68;10.30;;;20.10;92.80;;;;;;5094148;28;20040;-58
2021/08/13 03:38:24;;;;;;;18.08;11.25;;;20.00;92.90;;;;;;5075905;28;20476;-59
2021/08/13 03:40:49;;;;;;;14.55;9.95;;;20.00;92.90;;;;;;5095056;28;20097;-58
2021/08/13 03:43:15;;;;;;;18.58;11.43;;;20.00;93.00;;;;;;5093972;28;20047;-59
2021/08/13 03:45:41;;;;;;;15.65;10.88;;;19.90;93.10;;;;;;5093657;28;20047;-59
2021/08/13 03:48:06;;;;;;;15.82;10.60;;;19.90;93.30;;;;;;5094273;28;20036;-60
2021/08/13 03:50:32;;;;;;;13.15;10.13;;;19.80;93.40;;;;;;5093809;28;20036;-59
2021/08/13 03:52:58;;;;;;;14.60;10.05;;;19.80;93.50;;;;;;5094013;28;20043;-58
2021/08/13 03:55:24;;;;;;;18.13;10.60;;;19.80;93.50;;;;;;5093881;28;20036;-61
2021/08/13 03:57:49;;;;;;;11.68;9.05;;;20.00;93.60;;;;;;5093597;28;20039;-58
2021/08/13 04:00:15;;;;;;;14.13;9.18;;;20.10;93.80;;;;;;5093752;28;20568;-59
2021/08/13 04:02:41;;;;;;;13.45;10.85;;;20.20;93.30;;;;;;5093734;28;20113;-59
2021/08/13 04:05:07;;;;;;;13.65;10.27;;;20.30;93.10;;;;;;5093323;28;20091;-59
2021/08/13 04:07:33;;;;;;;17.08;10.77;;;20.30;92.90;;;;;;5092900;28;20032;-59
2021/08/13 04:09:58;;;;;;;15.25;9.88;;;20.20;93.00;;;;;;5093603;28;20046;-60
2021/08/13 04:12:24;;;;;;;13.35;10.52;;;20.20;93.30;;;;;;5093532;28;20412;-58
2021/08/13 04:14:50;;;;;;;13.10;9.60;;;20.00;93.70;;;;;;5075484;28;20032;-59
2021/08/13 04:17:16;;;;;;;13.38;10.02;;;20.00;94.10;;;;;;5093015;28;20043;-59
2021/08/13 04:19:42;;;;;;;11.55;9.50;;;20.00;94.40;;;;;;5093520;28;20036;-61
2021/08/13 04:22:07;;;;;;;9.68;8.68;;;20.10;93.90;;;;;;5092741;28;20119;-61
2021/08/13 04:24:34;;;;;;;11.48;10.25;;;20.30;93.70;;;;;;5093149;28;20064;-59
2021/08/13 04:27:02;;;;;;;10.73;9.52;;;20.40;93.50;;;;;;5093124;28;20036;-60
2021/08/13 04:29:28;;;;;;;11.40;9.25;;;20.40;93.40;;;;;;5092984;28;20074;-61
2021/08/13 04:31:53;;;;;;;12.80;10.13;;;20.40;93.30;;;;;;5092880;28;20456;-59
2021/08/13 04:34:20;;;;;;;12.25;9.38;;;20.40;93.30;;;;;;5093259;28;20043;-57
2021/08/13 04:36:45;;;;;;;14.63;9.77;;;20.40;93.40;;;;;;5093074;28;20097;-58
2021/08/13 04:39:11;;;;;;;14.75;9.82;;;20.40;93.40;;;;;;5093043;28;20399;-58
2021/08/13 04:41:37;;;;;;;12.35;9.55;;;20.30;93.50;;;;;;5093181;28;20047;-60
2021/08/13 04:44:03;;;;;;;15.90;10.63;;;20.20;93.40;;;;;;5075254;28;20522;-61
2021/08/13 04:46:29;;;;;;;15.70;9.43;;;20.10;93.60;;;;;;5093425;28;20030;-59
2021/08/13 04:48:54;;;;;;;12.30;9.57;;;20.10;93.70;;;;;;5093217;28;20020;-59
2021/08/13 04:51:20;;;;;;;12.73;9.75;;;20.10;93.80;;;;;;5093555;28;20383;-60
2021/08/13 04:53:45;;;;;;;14.00;9.60;;;20.20;93.80;;;;;;5092783;28;20040;-60
2021/08/13 04:56:11;;;;;;;12.57;10.30;;;20.20;93.70;;;;;;5092427;28;20032;-58
2021/08/13 04:58:37;;;;;;;15.40;9.95;;;20.20;93.70;;;;;;5092963;28;20032;-59
2021/08/13 05:01:02;;;;;;;12.18;10.25;;;20.20;93.50;;;;;;5093042;28;20114;-56
2021/08/13 05:03:28;;;;;;;13.43;9.63;;;20.20;93.30;;;;;;5092961;28;20372;-59
2021/08/13 05:05:53;;;;;;;14.07;10.02;;;20.10;93.50;;;;;;5094673;28;20071;-60
2021/08/13 05:08:19;;;;;;;11.85;9.63;;;20.10;93.60;;;;;;5096841;28;20028;-61
2021/08/13 05:10:45;;;;;;;13.90;10.48;;;20.20;93.30;;;;;;5099838;28;20510;-59
2021/08/13 05:13:10;;;;;;;11.60;9.55;;;20.30;93.20;;;;;;5094270;28;20476;-59
2021/08/13 05:15:36;;;;;;;12.32;9.75;;;20.40;93.10;;;;;;5092601;28;20310;-58
2021/08/13 05:18:04;;;;;;;17.60;11.07;;;20.50;93.00;;;;;;5092380;28;20035;-60
2021/08/13 05:20:29;;;;;;;14.50;10.50;;;20.60;92.70;;;;;;5092283;28;20038;-59
2021/08/13 05:22:55;;;;;;;16.30;11.30;;;20.70;92.50;;;;;;5093352;28;20032;-60
2021/08/13 05:25:21;;;;;;;15.63;11.48;;;20.70;92.40;;;;;;5092319;28;20028;-58
2021/08/13 05:27:47;;;;;;;18.70;13.15;;;20.80;92.30;;;;;;5091871;28;20032;-60
2021/08/13 05:30:16;;;;;;;19.55;14.02;;;20.90;92.00;;;;;;5074189;28;20028;-59
2021/08/13 05:32:43;;;;;;;24.65;12.95;;;21.00;92.00;;;;;;5085047;28;20115;-60
2021/08/13 05:35:10;;;;;;;49.78;33.42;;;21.00;92.00;;;;;;5086584;28;20044;-59
2021/08/13 05:37:36;;;;;;;26.63;16.00;;;21.00;91.80;;;;;;5071906;28;20503;-60
2021/08/13 05:40:03;;;;;;;19.52;11.07;;;21.00;91.80;;;;;;5075091;28;20081;-60
2021/08/13 05:42:29;;;;;;;15.40;10.88;;;20.90;92.10;;;;;;5092115;28;20514;-59
2021/08/13 05:44:54;;;;;;;20.60;10.43;;;20.90;92.00;;;;;;5089868;28;20032;-61
2021/08/13 05:47:20;;;;;;;18.80;9.95;;;20.90;91.90;;;;;;5071565;28;20048;-58
2021/08/13 05:49:46;;;;;;;17.95;11.65;;;20.80;92.10;;;;;;5083511;28;20532;-60
2021/08/13 05:52:12;;;;;;;17.27;11.57;;;20.90;92.20;;;;;;5092136;28;20510;-60
2021/08/13 05:54:37;;;;;;;19.90;10.20;;;20.90;92.20;;;;;;5073937;28;20392;-59
2021/08/13 05:57:03;;;;;;;19.77;11.32;;;21.10;92.00;;;;;;5091641;28;20072;-62
2021/08/13 05:59:29;;;;;;;17.25;10.55;;;21.00;92.10;;;;;;5092106;28;20067;-59
2021/08/13 06:01:54;;;;;;;17.42;10.35;;;21.00;92.30;;;;;;5091610;28;20051;-62
2021/08/13 06:04:20;;;;;;;14.07;10.27;;;21.10;92.20;;;;;;5092191;28;20038;-59
2021/08/13 06:06:45;;;;;;;12.93;10.40;;;21.20;92.10;;;;;;5091795;28;20101;-59
2021/08/13 06:09:11;;;;;;;14.90;10.10;;;21.20;92.20;;;;;;5091958;28;20032;-60
2021/08/13 06:11:37;;;;;;;14.20;10.13;;;21.30;92.10;;;;;;5087798;28;20399;-61
2021/08/13 06:14:03;;;;;;;18.00;10.32;;;21.40;92.00;;;;;;5092062;28;20514;-60
2021/08/13 06:16:28;;;;;;;14.10;10.40;;;21.40;92.00;;;;;;5074066;28;20097;-60
2021/08/13 06:18:54;;;;;;;14.02;10.90;;;21.60;91.80;;;;;;5089415;28;20047;-61
2021/08/13 06:21:19;;;;;;;11.68;9.40;;;21.70;91.70;;;;;;5071597;28;20079;-60
2021/08/13 06:23:45;;;;;;;13.00;9.93;;;21.80;91.60;;;;;;5071502;28;20033;-60
2021/08/13 06:26:11;;;;;;;17.40;10.38;;;21.80;91.60;;;;;;5071283;28;20090;-60
2021/08/13 06:28:37;;;;;;;13.57;9.70;;;21.80;91.70;;;;;;5071274;28;20116;-57
2021/08/13 06:31:04;;;;;;;17.75;9.80;;;21.70;91.90;;;;;;5071433;28;20555;-60
2021/08/13 06:33:29;;;;;;;18.38;9.68;;;21.80;92.10;;;;;;5071467;28;20484;-60
2021/08/13 06:35:55;;;;;;;18.75;12.57;;;21.80;92.10;;;;;;5071264;28;20126;-60
2021/08/13 06:38:21;;;;;;;19.17;14.18;;;22.00;91.80;;;;;;5071688;28;20041;-60
2021/08/13 06:40:46;;;;;;;21.60;14.77;;;22.10;91.70;;;;;;5071433;28;20036;-60
2021/08/13 06:43:12;;;;;;;12.88;9.82;;;22.10;91.60;;;;;;5071798;28;20420;-60
2021/08/13 06:45:38;;;;;;;12.05;9.45;;;22.20;91.60;;;;;;5072231;28;20032;-61
2021/08/13 06:48:04;;;;;;;16.48;9.98;;;22.30;91.50;;;;;;5074869;28;20116;-60
2021/08/13 06:50:29;;;;;;;15.10;9.35;;;22.40;91.30;;;;;;5092439;28;20487;-60
2021/08/13 06:52:55;;;;;;;15.95;9.27;;;22.40;91.50;;;;;;5095133;28;20490;-61
2021/08/13 06:55:21;;;;;;;14.43;9.60;;;22.50;91.40;;;;;;5076571;28;20028;-60
2021/08/13 06:57:46;;;;;;;14.68;9.80;;;22.60;91.20;;;;;;5094681;28;20032;-60
2021/08/13 07:00:13;;;;;;;13.18;9.35;;;22.70;91.00;;;;;;5094480;28;20119;-60
2021/08/13 07:02:40;;;;;;;18.45;9.73;;;22.70;90.90;;;;;;5076651;28;20046;-60
2021/08/13 07:05:07;;;;;;;18.75;10.55;;;22.90;90.80;;;;;;5094363;28;20115;-59
2021/08/13 07:07:32;;;;;;;15.10;10.43;;;22.90;90.60;;;;;;5094598;28;20040;-59
2021/08/13 07:10:06;;;;;;;17.45;9.73;;;23.20;90.70;;;;;;5094709;28;20053;-61
2021/08/13 07:12:32;;;;;;;16.83;9.23;;;23.20;90.40;;;;;;5094947;28;20028;-58
2021/08/13 07:14:57;;;;;;;15.70;9.60;;;23.20;90.40;;;;;;5094374;28;20113;-56
2021/08/13 07:17:23;;;;;;;13.55;10.13;;;23.40;90.40;;;;;;5094047;28;20036;-59
2021/08/13 07:19:49;;;;;;;14.50;9.63;;;23.50;90.20;;;;;;5093950;28;20135;-60
2021/08/13 07:22:14;;;;;;;15.40;9.18;;;23.50;90.30;;;;;;5094415;28;20032;-60
2021/08/13 07:24:40;;;;;;;14.75;9.32;;;23.60;90.20;;;;;;5093997;28;20028;-60
2021/08/13 07:27:05;;;;;;;11.48;8.40;;;23.60;90.20;;;;;;5093588;28;20043;-60
2021/08/13 07:29:31;;;;;;;16.92;10.07;;;23.70;90.20;;;;;;5091250;28;20040;-60
2021/08/13 07:31:56;;;;;;;13.07;9.10;;;23.80;89.30;;;;;;5086635;28;20044;-59
2021/08/13 07:34:22;;;;;;;11.32;9.15;;;23.80;88.80;;;;;;5094635;28;20468;-59
2021/08/13 07:36:48;;;;;;;11.73;9.07;;;23.90;89.30;;;;;;5075965;28;20826;-60
2021/08/13 07:39:13;;;;;;;10.38;8.32;;;23.90;88.90;;;;;;5094395;28;20390;-59
2021/08/13 07:41:39;;;;;;;14.18;8.82;;;23.90;88.00;;;;;;5076012;28;20152;-58
2021/08/13 07:44:05;;;;;;;12.95;8.75;;;23.90;88.80;;;;;;5094693;28;20088;-60
2021/08/13 07:46:30;;;;;;;12.60;8.75;;;23.90;88.60;;;;;;5094739;28;20059;-59
2021/08/13 07:48:56;;;;;;;10.73;8.63;;;24.00;88.60;;;;;;5094088;28;20024;-62
2021/08/13 07:51:21;;;;;;;13.10;9.18;;;24.10;89.00;;;;;;5094612;28;20360;-60
2021/08/13 07:53:47;;;;;;;13.35;10.43;;;24.20;88.50;;;;;;5088099;28;20040;-60
2021/08/13 07:56:13;;;;;;;12.50;9.60;;;24.30;89.10;;;;;;5073055;28;20037;-60
2021/08/13 07:58:38;;;;;;;12.43;9.63;;;24.30;88.30;;;;;;5073670;28;20032;-60
2021/08/13 08:01:04;;;;;;;12.95;9.93;;;24.50;87.70;;;;;;5074448;28;20494;-56
2021/08/13 08:03:29;;;;;;;17.00;9.43;;;24.60;87.90;;;;;;5083326;28;20036;-60
2021/08/13 08:05:55;;;;;;;17.15;10.15;;;24.50;86.40;;;;;;5072673;28;20052;-58
2021/08/13 08:08:21;;;;;;;15.88;9.30;;;24.70;86.50;;;;;;5093850;28;20047;-58
2021/08/13 08:10:47;;;;;;;15.63;9.55;;;24.70;86.90;;;;;;5095534;28;20502;-59
2021/08/13 08:13:17;;;;;;;14.55;9.27;;;24.90;85.70;;;;;;5077177;28;20040;-59
2021/08/13 08:15:45;;;;;;;15.20;9.73;;;25.00;85.30;;;;;;5083337;28;20028;-60
2021/08/13 08:18:11;;;;;;;14.82;9.48;;;25.10;83.90;;;;;;5075018;28;20071;-60
2021/08/13 08:20:36;;;;;;;11.70;8.63;;;25.20;83.20;;;;;;5069986;28;20072;-60
2021/08/13 08:23:02;;;;;;;13.52;8.55;;;25.30;83.00;;;;;;5076208;28;20025;-60
2021/08/13 08:25:29;;;;;;;9.10;7.80;;;25.30;82.30;;;;;;5075900;28;20473;-59
2021/08/13 08:27:55;;;;;;;13.35;8.27;;;25.40;82.10;;;;;;5075171;28;20060;-59
2021/08/13 08:30:21;;;;;;;11.07;9.07;;;25.60;82.10;;;;;;5075729;28;20033;-60
2021/08/13 08:32:51;;;;;;;13.13;8.63;;;25.70;82.60;;;;;;5074232;28;20028;-60
2021/08/13 08:35:17;;;;;;;10.40;8.30;;;25.90;82.30;;;;;;5073742;28;20032;-61
2021/08/13 08:37:50;;;;;;;13.35;8.18;;;25.80;80.90;;;;;;5055514;28;20036;-60
2021/08/13 08:40:38;;;;;;;9.48;8.38;;;25.70;80.40;;;;;;5072716;28;20036;-61
2021/08/13 08:43:08;;;;;;;10.88;9.00;;;25.80;80.40;;;;;;5072036;28;20400;-61
2021/08/13 08:45:36;;;;;;;11.18;8.63;;;25.70;81.10;;;;;;5072232;28;20373;-61
2021/08/13 08:48:04;;;;;;;12.80;8.50;;;25.60;80.80;;;;;;5072528;28;20067;-58
2021/08/13 08:50:32;;;;;;;10.82;7.80;;;25.70;80.20;;;;;;5090799;28;20089;-60
2021/08/13 08:53:01;;;;;;;15.95;8.38;;;25.90;79.90;;;;;;5093238;28;20032;-59
2021/08/13 08:55:27;;;;;;;12.23;8.65;;;26.00;79.50;;;;;;5092686;28;20039;-60
2021/08/13 08:57:55;;;;;;;11.23;8.10;;;26.10;80.30;;;;;;5087351;28;20037;-59
2021/08/13 09:00:22;;;;;;;13.85;8.43;;;26.20;79.80;;;;;;5072699;28;20021;-60
2021/08/13 09:02:48;;;;;;;15.75;9.55;;;26.30;79.50;;;;;;5077542;28;20042;-61
2021/08/13 09:05:14;;;;;;;9.13;8.23;;;26.20;79.60;;;;;;5081944;28;20051;-59
2021/08/13 09:07:40;;;;;;;13.73;9.00;;;26.30;79.00;;;;;;5082341;28;20044;-61
2021/08/13 09:10:07;;;;;;;9.88;8.85;;;26.30;78.30;;;;;;5092613;28;20078;-59
2021/08/13 09:12:33;;;;;;;12.57;8.98;;;26.40;78.40;;;;;;5093081;28;20039;-60
2021/08/13 09:14:59;;;;;;;10.23;8.02;;;26.50;78.10;;;;;;5082021;28;20036;-58
2021/08/13 09:17:31;;;;;;;11.82;8.65;;;26.70;77.40;;;;;;5074360;28;20171;-59
2021/08/13 09:19:58;;;;;;;14.27;9.45;;;26.80;76.40;;;;;;5080941;28;20036;-58
2021/08/13 09:22:25;;;;;;;13.35;8.57;;;26.60;76.80;;;;;;5078359;28;20383;-59
2021/08/13 09:24:53;;;;;;;10.32;8.00;;;26.60;75.80;;;;;;5092044;28;20034;-57
2021/08/13 09:27:28;;;;;;;10.60;7.78;;;26.80;76.30;;;;;;5091471;28;20079;-57
2021/08/13 09:30:07;;;;;;;14.57;9.43;;;27.00;76.50;;;;;;5091701;28;20028;-58
2021/08/13 09:32:32;;;;;;;17.08;9.18;;;27.00;74.00;;;;;;5072642;28;20113;-58
2021/08/13 09:34:58;;;;;;;11.10;8.20;;;26.90;74.20;;;;;;5072971;28;20504;-58
2021/08/13 09:37:24;;;;;;;13.95;8.88;;;26.80;74.00;;;;;;5071986;28;20036;-59
2021/08/13 09:39:55;;;;;;;10.00;8.43;;;26.80;72.10;;;;;;5071483;28;20042;-59
2021/08/13 09:42:21;;;;;;;14.20;9.07;;;26.90;72.30;;;;;;5071961;28;20444;-59
2021/08/13 09:45:00;;;;;;;10.65;9.02;;;27.00;71.40;;;;;;5071572;28;20063;-60
2021/08/13 09:47:38;;;;;;;10.57;9.15;;;27.10;71.10;;;;;;5071555;28;20380;-58
2021/08/13 09:50:04;;;;;;;10.25;9.07;;;27.30;70.90;;;;;;5086098;28;20103;-57
2021/08/13 09:52:30;;;;;;;12.15;8.95;;;27.30;71.00;;;;;;5092297;28;20036;-58
2021/08/13 09:55:14;;;;;;;11.77;8.80;;;27.30;67.80;;;;;;5074201;28;20036;-58
2021/08/13 09:57:46;;;;;;;10.38;9.30;;;27.40;69.40;;;;;;5071257;28;20132;-57
2021/08/13 10:00:14;;;;;;;14.57;8.48;;;27.40;69.40;;;;;;5076375;28;20491;-58
2021/08/13 10:02:40;;;;;;;14.20;8.85;;;27.50;67.50;;;;;;5063997;28;20170;-59
2021/08/13 10:05:26;;;;;;;11.75;8.68;;;27.30;67.70;;;;;;5077032;28;20033;-58
2021/08/13 10:07:53;;;;;;;9.98;8.85;;;27.20;68.90;;;;;;5081761;28;20032;-60
2021/08/13 10:10:28;;;;;;;10.57;8.48;;;27.50;68.60;;;;;;5092575;28;20039;-59
2021/08/13 10:12:54;;;;;;;13.35;9.40;;;27.60;66.70;;;;;;5092439;28;20114;-57
2021/08/13 10:15:40;;;;;;;13.05;9.57;;;27.70;66.70;;;;;;5092156;28;20071;-59
2021/08/13 10:18:07;;;;;;;11.30;8.63;;;27.60;67.00;;;;;;5092383;28;20085;-60
2021/08/13 10:20:42;;;;;;;14.63;9.27;;;27.60;67.70;;;;;;5093229;28;20024;-60
2021/08/13 10:23:11;;;;;;;12.07;9.02;;;27.90;66.60;;;;;;5081525;28;20563;-58
2021/08/13 10:25:37;;;;;;;10.55;9.45;;;27.90;65.40;;;;;;5075624;28;20070;-65
2021/08/13 10:28:03;;;;;;;12.48;9.68;;;27.90;66.00;;;;;;5075218;28;20131;-56
2021/08/13 10:30:29;;;;;;;12.40;10.23;;;28.00;65.80;;;;;;5075011;28;20108;-57
2021/08/13 10:32:57;;;;;;;13.02;10.63;;;28.10;65.90;;;;;;5075819;28;20029;-56
2021/08/13 10:35:29;;;;;;;18.10;11.07;;;28.30;65.80;;;;;;5075008;28;20412;-57
2021/08/13 10:37:58;;;;;;;12.27;10.75;;;28.10;66.20;;;;;;5075167;28;20036;-56
2021/08/13 10:40:25;;;;;;;12.70;10.63;;;28.20;65.40;;;;;;5075379;28;20033;-54
2021/08/13 10:42:52;;;;;;;12.80;11.10;;;28.10;65.60;;;;;;5074493;28;20051;-55
2021/08/13 10:45:25;;;;;;;12.23;10.95;;;28.20;65.80;;;;;;5074491;28;20111;-57
2021/08/13 10:48:20;;;;;;;15.77;10.93;;;28.30;66.30;;;;;;5075222;28;20033;-58
2021/08/13 10:50:48;;;;;;;14.05;10.60;;;28.20;66.90;;;;;;5095246;28;20174;-55
2021/08/13 10:53:27;;;;;;;12.13;10.45;;;28.20;66.10;;;;;;5095559;28;20036;-56
2021/08/13 10:55:56;;;;;;;15.20;12.15;;;28.50;65.80;;;;;;5094612;28;20498;-56
2021/08/13 10:58:37;;;;;;;13.98;10.65;;;28.70;66.20;;;;;;5095061;28;20077;-57
2021/08/13 11:01:04;;;;;;;12.77;10.75;;;28.70;65.10;;;;;;5095015;28;20021;-56
2021/08/13 11:03:30;;;;;;;12.82;11.23;;;28.60;65.30;;;;;;5076958;28;20047;-53
2021/08/13 11:06:00;;;;;;;15.82;11.43;;;28.90;65.00;;;;;;5095009;28;20028;-55
2021/08/13 11:08:41;;;;;;;14.25;12.18;;;28.70;64.40;;;;;;5095003;28;20036;-57
2021/08/13 11:11:08;;;;;;;15.75;11.32;;;28.70;64.30;;;;;;5095199;28;20028;-57
2021/08/13 11:13:39;;;;;;;13.32;11.18;;;28.50;65.30;;;;;;5077094;28;20063;-59
2021/08/13 11:16:24;;;;;;;13.98;10.95;;;28.70;65.10;;;;;;5094390;28;20032;-57
2021/08/13 11:19:07;;;;;;;13.63;12.25;;;28.70;64.80;;;;;;5093765;28;20028;-56
2021/08/13 11:21:40;;;;;;;14.45;12.93;;;28.60;64.90;;;;;;5094864;28;20051;-58
2021/08/13 11:24:12;;;;;;;15.27;13.35;;;28.60;64.10;;;;;;5095027;28;20051;-57
2021/08/13 11:26:53;;;;;;;15.52;12.65;;;28.80;63.50;;;;;;5094311;28;20132;-54
2021/08/13 11:29:30;;;;;;;22.92;13.15;;;29.00;63.70;;;;;;5094914;28;20040;-57
2021/08/13 11:31:58;;;;;;;14.02;12.48;;;29.10;63.40;;;;;;5094162;28;20047;-56
2021/08/13 11:34:55;;;;;;;14.48;12.55;;;29.20;62.80;;;;;;5094614;28;20032;-57
2021/08/13 11:37:42;;;;;;;16.25;13.23;;;29.40;62.60;;;;;;5094922;28;20048;-57
2021/08/13 11:40:31;;;;;;;14.02;12.48;;;29.50;62.40;;;;;;5095057;28;20076;-55
2021/08/13 11:43:06;;;;;;;13.52;12.15;;;29.50;63.00;;;;;;5094261;28;20031;-56
2021/08/13 11:45:37;;;;;;;17.35;12.88;;;29.10;63.30;;;;;;5093936;28;20036;-55
2021/08/13 11:48:04;;;;;;;13.55;12.25;;;29.20;63.40;;;;;;5093952;28;20533;-58
2021/08/13 11:50:30;;;;;;;17.48;11.60;;;29.20;63.70;;;;;;5076249;28;20104;-57
2021/08/13 11:52:55;;;;;;;17.27;11.80;;;29.30;64.40;;;;;;5074003;28;20115;-57
2021/08/13 11:55:28;;;;;;;15.15;11.98;;;29.20;64.30;;;;;;5073436;28;20127;-58
2021/08/13 11:57:56;;;;;;;13.73;12.18;;;29.10;64.70;;;;;;5073742;28;20035;-57
2021/08/13 12:00:22;;;;;;;13.98;12.48;;;29.30;64.00;;;;;;5055939;28;20032;-57
2021/08/13 12:02:55;;;;;;;15.30;12.43;;;29.30;64.10;;;;;;5073894;28;20376;-57
2021/08/13 12:05:20;;;;;;;16.17;12.57;;;29.30;63.50;;;;;;5073612;28;20021;-56
2021/08/13 12:07:57;;;;;;;14.73;12.77;;;29.10;63.80;;;;;;5073172;28;20123;-54
2021/08/13 12:10:23;;;;;;;13.90;12.30;;;29.20;64.90;;;;;;5073304;28;20041;-57
2021/08/13 12:12:49;;;;;;;13.80;12.38;;;29.10;65.10;;;;;;5055959;28;20040;-55
2021/08/13 12:15:25;;;;;;;16.35;12.68;;;29.00;64.30;;;;;;5080392;28;20044;-56
2021/08/13 12:17:54;;;;;;;14.25;12.45;;;28.80;64.50;;;;;;5093966;28;20028;-56
2021/08/13 12:20:20;;;;;;;15.10;12.15;;;28.80;64.80;;;;;;5092445;28;20495;-57
2021/08/13 12:22:46;;;;;;;14.20;12.75;;;28.90;64.70;;;;;;5093338;28;20032;-56
2021/08/13 12:25:13;;;;;;;13.02;11.65;;;28.90;64.20;;;;;;5092980;28;20038;-56
2021/08/13 12:27:41;;;;;;;14.15;12.52;;;29.10;64.20;;;;;;5092776;28;20085;-54
2021/08/13 12:30:22;;;;;;;13.57;12.18;;;29.50;63.70;;;;;;5093775;28;20481;-58
2021/08/13 12:32:50;;;;;;;13.38;11.90;;;29.70;62.90;;;;;;5095029;28;20056;-56
2021/08/13 12:35:15;;;;;;;13.50;12.10;;;29.80;63.40;;;;;;5093233;28;20665;-57
2021/08/13 12:37:42;;;;;;;12.85;11.63;;;29.60;64.40;;;;;;5081461;28;20047;-55